ECISR LEIG-LECD
Flight info
| Callsign | ECISR |
|---|---|
| Flight time | 0h 45m |
| Altitude | 9500 |
| Route | VFR |
| Aircraft | AP32/L-V/7000 |
Departure
| Time | 2026-05-05 16:22 |
|---|---|
| Airport | Igualada/Odena Airfield (LEIG) |
Arrival
| Time | 2026-05-05 17:07 |
|---|---|
| Airport | La Cerdanya Airfield (LECD) |
| Time | Latitude | Longitude | Altitude | Speed | Heading |
|---|---|---|---|---|---|
| 2026-05-05 16:11 | 41.58442 | 1.65442 | 1088 ft | 0 kts | 268° |
| 2026-05-05 16:18 | 41.58433 | 1.65391 | 1088 ft | 5 kts | 250° |
| 2026-05-05 16:18 | 41.58423 | 1.65361 | 1088 ft | 3 kts | 243° |
| 2026-05-05 16:18 | 41.58416 | 1.65345 | 1087 ft | 2 kts | 236° |
| 2026-05-05 16:19 | 41.58383 | 1.65322 | 1083 ft | 13 kts | 182° |
| 2026-05-05 16:19 | 41.58261 | 1.65365 | 1074 ft | 23 kts | 159° |
| 2026-05-05 16:19 | 41.58088 | 1.65433 | 1068 ft | 4 kts | 158° |
| 2026-05-05 16:20 | 41.58083 | 1.65437 | 1068 ft | 0 kts | 102° |
| 2026-05-05 16:20 | 41.58083 | 1.65439 | 1068 ft | 0 kts | 102° |
| 2026-05-05 16:21 | 41.58096 | 1.65447 | 1068 ft | 0 kts | 332° |
| 2026-05-05 16:22 | 41.59037 | 1.65054 | 1516 ft | 74 kts | 339° |
| 2026-05-05 16:22 | 41.60046 | 1.65165 | 1923 ft | 92 kts | 55° |
| 2026-05-05 16:23 | 41.59659 | 1.66266 | 1739 ft | 89 kts | 178° |
| 2026-05-05 16:23 | 41.59035 | 1.66522 | 1746 ft | 94 kts | 147° |
| 2026-05-05 16:23 | 41.58914 | 1.68081 | 2125 ft | 88 kts | 68° |
| 2026-05-05 16:24 | 41.59133 | 1.68788 | 2414 ft | 78 kts | 65° |
| 2026-05-05 16:24 | 41.59332 | 1.69445 | 2628 ft | 76 kts | 61° |
| 2026-05-05 16:24 | 41.60161 | 1.70646 | 2831 ft | 97 kts | 63° |
| 2026-05-05 16:25 | 41.60368 | 1.71483 | 3095 ft | 91 kts | 75° |
| 2026-05-05 16:25 | 41.60706 | 1.73268 | 3343 ft | 102 kts | 67° |
| 2026-05-05 16:25 | 41.60945 | 1.74144 | 3534 ft | 99 kts | 69° |
| 2026-05-05 16:26 | 41.61461 | 1.75734 | 3918 ft | 90 kts | 50° |
| 2026-05-05 16:26 | 41.62051 | 1.77306 | 4113 ft | 108 kts | 73° |
| 2026-05-05 16:27 | 41.62170 | 1.78344 | 4129 ft | 119 kts | 85° |
| 2026-05-05 16:27 | 41.62175 | 1.79489 | 4061 ft | 128 kts | 95° |
| 2026-05-05 16:27 | 41.62074 | 1.80659 | 4047 ft | 130 kts | 98° |
| 2026-05-05 16:27 | 41.61907 | 1.81850 | 4091 ft | 127 kts | 102° |
| 2026-05-05 16:28 | 41.61701 | 1.83000 | 4028 ft | 127 kts | 108° |
| 2026-05-05 16:28 | 41.61426 | 1.84093 | 4007 ft | 124 kts | 112° |
| 2026-05-05 16:28 | 41.61189 | 1.85178 | 4029 ft | 123 kts | 101° |
| 2026-05-05 16:28 | 41.61112 | 1.86333 | 4016 ft | 127 kts | 89° |
| 2026-05-05 16:29 | 41.61219 | 1.87484 | 4035 ft | 123 kts | 76° |
| 2026-05-05 16:29 | 41.61536 | 1.88543 | 4060 ft | 120 kts | 65° |
| 2026-05-05 16:29 | 41.61828 | 1.89587 | 4097 ft | 120 kts | 70° |
| 2026-05-05 16:29 | 41.62068 | 1.90666 | 4137 ft | 121 kts | 71° |
| 2026-05-05 16:30 | 41.62387 | 1.91665 | 4220 ft | 117 kts | 56° |
| 2026-05-05 16:30 | 41.62928 | 1.92485 | 4223 ft | 118 kts | 37° |
| 2026-05-05 16:30 | 41.63605 | 1.93110 | 4260 ft | 117 kts | 28° |
| 2026-05-05 16:30 | 41.64285 | 1.93697 | 4298 ft | 115 kts | 30° |
| 2026-05-05 16:31 | 41.64953 | 1.94319 | 4276 ft | 119 kts | 31° |
| 2026-05-05 16:31 | 41.65627 | 1.94926 | 4353 ft | 116 kts | 29° |
| 2026-05-05 16:31 | 41.66308 | 1.95523 | 4321 ft | 119 kts | 30° |
| 2026-05-05 16:31 | 41.66994 | 1.96166 | 4340 ft | 122 kts | 34° |
| 2026-05-05 16:32 | 41.67657 | 1.96835 | 4373 ft | 119 kts | 35° |
| 2026-05-05 16:32 | 41.68310 | 1.97548 | 4338 ft | 121 kts | 38° |
| 2026-05-05 16:32 | 41.68934 | 1.98295 | 4290 ft | 119 kts | 38° |
| 2026-05-05 16:32 | 41.69564 | 1.99014 | 4335 ft | 120 kts | 38° |
| 2026-05-05 16:33 | 41.70185 | 1.99762 | 4385 ft | 120 kts | 39° |
| 2026-05-05 16:33 | 41.70814 | 2.00505 | 4386 ft | 121 kts | 38° |
| 2026-05-05 16:33 | 41.71411 | 2.01292 | 4459 ft | 119 kts | 42° |
| 2026-05-05 16:33 | 41.72007 | 2.02085 | 4411 ft | 124 kts | 41° |
| 2026-05-05 16:34 | 41.72571 | 2.02963 | 4378 ft | 129 kts | 63° |
| 2026-05-05 16:34 | 41.73019 | 2.03967 | 4358 ft | 125 kts | 38° |
| 2026-05-05 16:34 | 41.73709 | 2.04590 | 4425 ft | 116 kts | 25° |
| 2026-05-05 16:34 | 41.74370 | 2.05226 | 4457 ft | 119 kts | 37° |
| 2026-05-05 16:35 | 41.74998 | 2.05963 | 4471 ft | 121 kts | 38° |
| 2026-05-05 16:35 | 41.75618 | 2.06733 | 4503 ft | 120 kts | 39° |
| 2026-05-05 16:35 | 41.76223 | 2.07525 | 4544 ft | 123 kts | 41° |
| 2026-05-05 16:35 | 41.76911 | 2.08141 | 4552 ft | 117 kts | 14° |
| 2026-05-05 16:36 | 41.77721 | 2.08409 | 4452 ft | 122 kts | 8° |
| 2026-05-05 16:36 | 41.78559 | 2.08644 | 4521 ft | 118 kts | 358° |
| 2026-05-05 16:36 | 41.79258 | 2.08465 | 5121 ft | 83 kts | 320° |
| 2026-05-05 16:36 | 41.79580 | 2.08668 | 5806 ft | 63 kts | 2° |
| 2026-05-05 16:37 | 41.79937 | 2.08421 | 5623 ft | 76 kts | 305° |
| 2026-05-05 16:37 | 41.80389 | 2.07935 | 5297 ft | 86 kts | 325° |
| 2026-05-05 16:37 | 41.80959 | 2.07549 | 4971 ft | 99 kts | 334° |
| 2026-05-05 16:37 | 41.81643 | 2.07255 | 4787 ft | 101 kts | 340° |
| 2026-05-05 16:38 | 41.82312 | 2.07107 | 4284 ft | 100 kts | 346° |
| 2026-05-05 16:38 | 41.82999 | 2.07032 | 3994 ft | 101 kts | 351° |
| 2026-05-05 16:38 | 41.83759 | 2.07088 | 3926 ft | 115 kts | 3° |
| 2026-05-05 16:38 | 41.84517 | 2.07289 | 3931 ft | 110 kts | 7° |
| 2026-05-05 16:39 | 41.85260 | 2.07484 | 3989 ft | 109 kts | 3° |
| 2026-05-05 16:39 | 41.86004 | 2.07576 | 4088 ft | 107 kts | 354° |
| 2026-05-05 16:39 | 41.86754 | 2.07618 | 4123 ft | 107 kts | 357° |
| 2026-05-05 16:39 | 41.87502 | 2.07710 | 4135 ft | 111 kts | 2° |
| 2026-05-05 16:40 | 41.88251 | 2.07966 | 4231 ft | 106 kts | 360° |
| 2026-05-05 16:40 | 41.88974 | 2.08105 | 4332 ft | 103 kts | 0° |
| 2026-05-05 16:40 | 41.89668 | 2.08251 | 4413 ft | 100 kts | 1° |
| 2026-05-05 16:40 | 41.90356 | 2.08364 | 4532 ft | 98 kts | 358° |
| 2026-05-05 16:41 | 41.91057 | 2.08461 | 4553 ft | 105 kts | 360° |
| 2026-05-05 16:41 | 41.91799 | 2.08557 | 4551 ft | 109 kts | 357° |
| 2026-05-05 16:41 | 41.92556 | 2.08644 | 4603 ft | 108 kts | 0° |
| 2026-05-05 16:41 | 41.93281 | 2.08768 | 4716 ft | 104 kts | 357° |
| 2026-05-05 16:42 | 41.94009 | 2.08890 | 4731 ft | 107 kts | 358° |
| 2026-05-05 16:42 | 41.94741 | 2.08967 | 4766 ft | 105 kts | 356° |
| 2026-05-05 16:42 | 41.95471 | 2.09071 | 4783 ft | 105 kts | 0° |
| 2026-05-05 16:42 | 41.96193 | 2.09172 | 4832 ft | 105 kts | 358° |
| 2026-05-05 16:43 | 41.96929 | 2.09281 | 4875 ft | 106 kts | 355° |
| 2026-05-05 16:43 | 41.97660 | 2.09336 | 4921 ft | 106 kts | 357° |
| 2026-05-05 16:43 | 41.98405 | 2.09444 | 4943 ft | 109 kts | 1° |
| 2026-05-05 16:43 | 41.99146 | 2.09558 | 4984 ft | 106 kts | 0° |
| 2026-05-05 16:44 | 41.99876 | 2.09706 | 5007 ft | 107 kts | 2° |
| 2026-05-05 16:44 | 42.00618 | 2.09915 | 5008 ft | 113 kts | 2° |
| 2026-05-05 16:44 | 42.01398 | 2.10084 | 5060 ft | 113 kts | 357° |
| 2026-05-05 16:44 | 42.02174 | 2.10140 | 5079 ft | 112 kts | 360° |
| 2026-05-05 16:45 | 42.02951 | 2.10321 | 5088 ft | 113 kts | 6° |
| 2026-05-05 16:45 | 42.03719 | 2.10659 | 5108 ft | 114 kts | 17° |
| 2026-05-05 16:45 | 42.04439 | 2.11108 | 5166 ft | 113 kts | 21° |
| 2026-05-05 16:45 | 42.05149 | 2.11561 | 5189 ft | 117 kts | 16° |
| 2026-05-05 16:46 | 42.05898 | 2.11982 | 5282 ft | 113 kts | 14° |
| 2026-05-05 16:46 | 42.06629 | 2.12241 | 5376 ft | 106 kts | 8° |
| 2026-05-05 16:46 | 42.07303 | 2.12529 | 5460 ft | 104 kts | 14° |
| 2026-05-05 16:46 | 42.07986 | 2.12854 | 5622 ft | 97 kts | 13° |
| 2026-05-05 16:47 | 42.08525 | 2.13164 | 5939 ft | 74 kts | 15° |
| 2026-05-05 16:47 | 42.08960 | 2.13448 | 6136 ft | 65 kts | 9° |
| 2026-05-05 16:47 | 42.09368 | 2.13709 | 6285 ft | 63 kts | 14° |
| 2026-05-05 16:47 | 42.09787 | 2.13945 | 6357 ft | 74 kts | 9° |
| 2026-05-05 16:48 | 42.10327 | 2.14232 | 6504 ft | 85 kts | 9° |
| 2026-05-05 16:48 | 42.10836 | 2.14496 | 6793 ft | 76 kts | 11° |
| 2026-05-05 16:48 | 42.11336 | 2.14795 | 6994 ft | 79 kts | 8° |
| 2026-05-05 16:48 | 42.11876 | 2.14865 | 7154 ft | 84 kts | 351° |
| 2026-05-05 16:49 | 42.12508 | 2.14982 | 7160 ft | 97 kts | 357° |
| 2026-05-05 16:49 | 42.13178 | 2.15115 | 7340 ft | 89 kts | 4° |
| 2026-05-05 16:49 | 42.13725 | 2.15367 | 7616 ft | 79 kts | 8° |
| 2026-05-05 16:49 | 42.14256 | 2.15627 | 7765 ft | 84 kts | 11° |
| 2026-05-05 16:50 | 42.14796 | 2.15925 | 7908 ft | 89 kts | 11° |
| 2026-05-05 16:50 | 42.15408 | 2.16058 | 7998 ft | 93 kts | 344° |
| 2026-05-05 16:50 | 42.16073 | 2.16030 | 8098 ft | 95 kts | 349° |
| 2026-05-05 16:50 | 42.16748 | 2.16054 | 8158 ft | 98 kts | 349° |
| 2026-05-05 16:51 | 42.17416 | 2.15951 | 8278 ft | 96 kts | 341° |
| 2026-05-05 16:51 | 42.18049 | 2.15785 | 8439 ft | 91 kts | 333° |
| 2026-05-05 16:51 | 42.18692 | 2.15543 | 8452 ft | 102 kts | 337° |
| 2026-05-05 16:51 | 42.19410 | 2.15334 | 8482 ft | 109 kts | 337° |
| 2026-05-05 16:52 | 42.20152 | 2.15156 | 8550 ft | 108 kts | 337° |
| 2026-05-05 16:52 | 42.20915 | 2.14984 | 8508 ft | 116 kts | 348° |
| 2026-05-05 16:52 | 42.21700 | 2.15007 | 8568 ft | 109 kts | 348° |
| 2026-05-05 16:52 | 42.22191 | 2.14869 | 8542 ft | 111 kts | 334° |
| 2026-05-05 16:53 | 42.22973 | 2.14771 | 8579 ft | 113 kts | 354° |
| 2026-05-05 16:53 | 42.23751 | 2.14909 | 8631 ft | 114 kts | 5° |
| 2026-05-05 16:53 | 42.24501 | 2.15201 | 8669 ft | 111 kts | 11° |
| 2026-05-05 16:53 | 42.25216 | 2.15397 | 8713 ft | 107 kts | 345° |
| 2026-05-05 16:54 | 42.26201 | 2.15154 | 8702 ft | 105 kts | 330° |
| 2026-05-05 16:54 | 42.26631 | 2.14862 | 8675 ft | 102 kts | 315° |
| 2026-05-05 16:54 | 42.27181 | 2.14398 | 8901 ft | 90 kts | 326° |
| 2026-05-05 16:54 | 42.27784 | 2.14169 | 9039 ft | 88 kts | 337° |
| 2026-05-05 16:55 | 42.28346 | 2.13959 | 9152 ft | 85 kts | 328° |
| 2026-05-05 16:55 | 42.28920 | 2.13695 | 9213 ft | 89 kts | 327° |
| 2026-05-05 16:55 | 42.29511 | 2.13396 | 9259 ft | 90 kts | 327° |
| 2026-05-05 16:55 | 42.30092 | 2.13083 | 9248 ft | 91 kts | 330° |
| 2026-05-05 16:56 | 42.30671 | 2.12775 | 9271 ft | 87 kts | 320° |
| 2026-05-05 16:56 | 42.31202 | 2.12430 | 9346 ft | 83 kts | 319° |
| 2026-05-05 16:56 | 42.31654 | 2.11918 | 9400 ft | 87 kts | 307° |
| 2026-05-05 16:56 | 42.31990 | 2.11222 | 9443 ft | 90 kts | 289° |
| 2026-05-05 16:57 | 42.32430 | 2.10660 | 9591 ft | 89 kts | 321° |
| 2026-05-05 16:57 | 42.32926 | 2.10243 | 9745 ft | 84 kts | 311° |
| 2026-05-05 16:57 | 42.33371 | 2.09736 | 9819 ft | 81 kts | 308° |
| 2026-05-05 16:57 | 42.33857 | 2.09274 | 9759 ft | 89 kts | 316° |
| 2026-05-05 16:58 | 42.34426 | 2.08848 | 9708 ft | 96 kts | 322° |
| 2026-05-05 16:58 | 42.35032 | 2.08409 | 9831 ft | 96 kts | 317° |
| 2026-05-05 16:58 | 42.35582 | 2.07940 | 10002 ft | 93 kts | 316° |
| 2026-05-05 16:58 | 42.36133 | 2.07425 | 9994 ft | 100 kts | 315° |
| 2026-05-05 16:59 | 42.36711 | 2.06865 | 9890 ft | 104 kts | 305° |
| 2026-05-05 16:59 | 42.37160 | 2.06071 | 9768 ft | 112 kts | 296° |
| 2026-05-05 16:59 | 42.37541 | 2.05177 | 9709 ft | 110 kts | 294° |
| 2026-05-05 16:59 | 42.37961 | 2.04313 | 9586 ft | 111 kts | 297° |
| 2026-05-05 17:00 | 42.38253 | 2.03386 | 9384 ft | 103 kts | 274° |
| 2026-05-05 17:00 | 42.38211 | 2.02422 | 9088 ft | 106 kts | 262° |
| 2026-05-05 17:00 | 42.38052 | 2.01409 | 8843 ft | 104 kts | 254° |
| 2026-05-05 17:00 | 42.37935 | 2.00503 | 8857 ft | 95 kts | 261° |
| 2026-05-05 17:01 | 42.37881 | 1.99620 | 8785 ft | 95 kts | 266° |
| 2026-05-05 17:01 | 42.37878 | 1.98723 | 8754 ft | 95 kts | 267° |
| 2026-05-05 17:01 | 42.37868 | 1.97833 | 8707 ft | 95 kts | 268° |
| 2026-05-05 17:01 | 42.37877 | 1.96955 | 8641 ft | 93 kts | 269° |
| 2026-05-05 17:02 | 42.37857 | 1.96040 | 8495 ft | 104 kts | 267° |
| 2026-05-05 17:02 | 42.37841 | 1.95030 | 8296 ft | 109 kts | 265° |
| 2026-05-05 17:02 | 42.37821 | 1.94028 | 8174 ft | 105 kts | 267° |
| 2026-05-05 17:02 | 42.37827 | 1.93026 | 7995 ft | 108 kts | 269° |
| 2026-05-05 17:03 | 42.37851 | 1.92011 | 7770 ft | 111 kts | 270° |
| 2026-05-05 17:03 | 42.37747 | 1.91129 | 7422 ft | 85 kts | 257° |
| 2026-05-05 17:03 | 42.37640 | 1.90367 | 7014 ft | 85 kts | 262° |
| 2026-05-05 17:03 | 42.37575 | 1.89533 | 6512 ft | 92 kts | 264° |
| 2026-05-05 17:04 | 42.37491 | 1.88679 | 6032 ft | 90 kts | 263° |
| 2026-05-05 17:04 | 42.37433 | 1.87891 | 5752 ft | 77 kts | 276° |
| 2026-05-05 17:04 | 42.37677 | 1.87200 | 5573 ft | 88 kts | 306° |
| 2026-05-05 17:04 | 42.38158 | 1.86601 | 5277 ft | 100 kts | 321° |
| 2026-05-05 17:05 | 42.38806 | 1.86210 | 5005 ft | 103 kts | 338° |
| 2026-05-05 17:05 | 42.39438 | 1.86061 | 4940 ft | 81 kts | 15° |
| 2026-05-05 17:05 | 42.39878 | 1.86595 | 4982 ft | 90 kts | 56° |
| 2026-05-05 17:05 | 42.40170 | 1.87290 | 5039 ft | 72 kts | 63° |
| 2026-05-05 17:06 | 42.40351 | 1.87913 | 5089 ft | 70 kts | 78° |
| 2026-05-05 17:06 | 42.40250 | 1.88593 | 5023 ft | 80 kts | 125° |
| 2026-05-05 17:06 | 42.39862 | 1.89074 | 4970 ft | 61 kts | 161° |
| 2026-05-05 17:06 | 42.39536 | 1.88789 | 4795 ft | 63 kts | 247° |
| 2026-05-05 17:07 | 42.39393 | 1.88266 | 4595 ft | 57 kts | 264° |
| 2026-05-05 17:07 | 42.39249 | 1.87772 | 4241 ft | 59 kts | 265° |
| 2026-05-05 17:07 | 42.39064 | 1.87277 | 3896 ft | 56 kts | 266° |
| 2026-05-05 17:07 | 42.38900 | 1.86840 | 3691 ft | 44 kts | 243° |
| 2026-05-05 17:08 | 42.38800 | 1.86569 | 3679 ft | 23 kts | 246° |
| 2026-05-05 17:08 | 42.38751 | 1.86435 | 3677 ft | 3 kts | 205° |
| 2026-05-05 17:08 | 42.38766 | 1.86468 | 3678 ft | 8 kts | 65° |
| 2026-05-05 17:08 | 42.38791 | 1.86529 | 3679 ft | 7 kts | 63° |
| 2026-05-05 17:09 | 42.38801 | 1.86582 | 3682 ft | 5 kts | 86° |
| 2026-05-05 17:09 | 42.38797 | 1.86604 | 3681 ft | 4 kts | 134° |